sensor_id;sensor_type;location;lat;lon;timestamp;temperature;humidity
51619;DHT22;38518;53.164;5.430;2022-10-17T00:02:16;11.50;1.00
51619;DHT22;38518;53.164;5.430;2022-10-17T00:04:42;11.50;1.00
51619;DHT22;38518;53.164;5.430;2022-10-17T00:07:08;11.50;1.00
51619;DHT22;38518;53.164;5.430;2022-10-17T00:09:33;11.60;1.00
51619;DHT22;38518;53.164;5.430;2022-10-17T00:11:59;11.60;1.00
51619;DHT22;38518;53.164;5.430;2022-10-17T00:14:27;11.70;1.00
51619;DHT22;38518;53.164;5.430;2022-10-17T00:16:53;11.70;1.00
51619;DHT22;38518;53.164;5.430;2022-10-17T00:19:18;11.70;1.00
51619;DHT22;38518;53.164;5.430;2022-10-17T00:21:44;11.80;1.00
51619;DHT22;38518;53.164;5.430;2022-10-17T00:24:10;11.80;1.00
51619;DHT22;38518;53.164;5.430;2022-10-17T00:26:36;11.80;1.00
51619;DHT22;38518;53.164;5.430;2022-10-17T00:29:01;11.80;1.00
51619;DHT22;38518;53.164;5.430;2022-10-17T00:31:27;11.40;1.00
51619;DHT22;38518;53.164;5.430;2022-10-17T00:33:53;11.90;2.50
51619;DHT22;38518;53.164;5.430;2022-10-17T00:36:23;11.90;15.00
51619;DHT22;38518;53.164;5.430;2022-10-17T00:38:52;11.90;20.70
51619;DHT22;38518;53.164;5.430;2022-10-17T00:41:21;11.90;31.10
51619;DHT22;38518;53.164;5.430;2022-10-17T00:46:17;12.00;47.30
51619;DHT22;38518;53.164;5.430;2022-10-17T00:48:43;12.10;70.00
51619;DHT22;38518;53.164;5.430;2022-10-17T00:51:10;12.00;76.80
51619;DHT22;38518;53.164;5.430;2022-10-17T00:53:36;12.10;93.00
51619;DHT22;38518;53.164;5.430;2022-10-17T00:56:10;12.10;99.90
51619;DHT22;38518;53.164;5.430;2022-10-17T00:58:37;12.20;99.90
51619;DHT22;38518;53.164;5.430;2022-10-17T01:01:03;12.20;99.90
51619;DHT22;38518;53.164;5.430;2022-10-17T01:03:28;12.30;99.90
51619;DHT22;38518;53.164;5.430;2022-10-17T01:05:54;12.30;99.90
51619;DHT22;38518;53.164;5.430;2022-10-17T01:08:21;12.40;99.90
51619;DHT22;38518;53.164;5.430;2022-10-17T01:19:11;12.50;99.90
51619;DHT22;38518;53.164;5.430;2022-10-17T01:27:38;12.50;99.90
51619;DHT22;38518;53.164;5.430;2022-10-17T01:33:29;12.50;99.90
51619;DHT22;38518;53.164;5.430;2022-10-17T01:36:04;12.40;99.90
51619;DHT22;38518;53.164;5.430;2022-10-17T01:38:48;12.40;99.90
51619;DHT22;38518;53.164;5.430;2022-10-17T01:41:41;12.40;99.90
51619;DHT22;38518;53.164;5.430;2022-10-17T01:46:51;12.30;99.90
51619;DHT22;38518;53.164;5.430;2022-10-17T01:49:23;12.30;99.90
51619;DHT22;38518;53.164;5.430;2022-10-17T01:52:12;12.30;99.90
51619;DHT22;38518;53.164;5.430;2022-10-17T01:54:43;12.30;99.90
51619;DHT22;38518;53.164;5.430;2022-10-17T01:57:19;12.20;99.90
51619;DHT22;38518;53.164;5.430;2022-10-17T01:59:47;11.50;99.90
51619;DHT22;38518;53.164;5.430;2022-10-17T02:02:16;12.20;99.90
51619;DHT22;38518;53.164;5.430;2022-10-17T02:04:44;12.10;99.90
51619;DHT22;38518;53.164;5.430;2022-10-17T02:07:12;12.10;99.90
51619;DHT22;38518;53.164;5.430;2022-10-17T02:09:38;12.10;99.90
51619;DHT22;38518;53.164;5.430;2022-10-17T02:23:13;11.90;99.90
51619;DHT22;38518;53.164;5.430;2022-10-17T02:31:28;11.90;99.90
51619;DHT22;38518;53.164;5.430;2022-10-17T02:33:58;11.90;99.90
51619;DHT22;38518;53.164;5.430;2022-10-17T02:36:32;11.90;99.90
51619;DHT22;38518;53.164;5.430;2022-10-17T02:39:00;11.80;99.90
51619;DHT22;38518;53.164;5.430;2022-10-17T02:41:27;11.90;99.90
51619;DHT22;38518;53.164;5.430;2022-10-17T02:43:55;11.90;99.90
51619;DHT22;38518;53.164;5.430;2022-10-17T02:46:22;11.90;99.90
51619;DHT22;38518;53.164;5.430;2022-10-17T02:49:07;11.90;99.90
51619;DHT22;38518;53.164;5.430;2022-10-17T02:55:12;11.90;99.90
51619;DHT22;38518;53.164;5.430;2022-10-17T03:00:08;11.90;99.90
51619;DHT22;38518;53.164;5.430;2022-10-17T03:02:46;11.90;99.90
51619;DHT22;38518;53.164;5.430;2022-10-17T03:05:16;11.90;99.90
51619;DHT22;38518;53.164;5.430;2022-10-17T03:07:42;11.90;99.90
51619;DHT22;38518;53.164;5.430;2022-10-17T03:10:08;11.90;99.90
51619;DHT22;38518;53.164;5.430;2022-10-17T03:12:34;11.90;99.90
51619;DHT22;38518;53.164;5.430;2022-10-17T03:14:59;11.90;99.90
51619;DHT22;38518;53.164;5.430;2022-10-17T03:17:25;11.80;99.90
51619;DHT22;38518;53.164;5.430;2022-10-17T03:19:51;11.80;99.90
51619;DHT22;38518;53.164;5.430;2022-10-17T03:22:17;11.90;1.00
51619;DHT22;38518;53.164;5.430;2022-10-17T03:24:42;11.80;1.00
51619;DHT22;38518;53.164;5.430;2022-10-17T03:27:08;11.80;1.00
51619;DHT22;38518;53.164;5.430;2022-10-17T03:29:34;11.80;1.00
51619;DHT22;38518;53.164;5.430;2022-10-17T03:32:00;11.90;1.00
51619;DHT22;38518;53.164;5.430;2022-10-17T03:34:26;12.10;1.00
51619;DHT22;38518;53.164;5.430;2022-10-17T03:36:52;12.00;1.00
51619;DHT22;38518;53.164;5.430;2022-10-17T03:39:17;12.10;1.00
51619;DHT22;38518;53.164;5.430;2022-10-17T03:41:43;12.20;1.00
51619;DHT22;38518;53.164;5.430;2022-10-17T03:44:09;12.20;1.00
51619;DHT22;38518;53.164;5.430;2022-10-17T03:46:34;12.30;1.00
51619;DHT22;38518;53.164;5.430;2022-10-17T03:49:00;12.30;1.00
51619;DHT22;38518;53.164;5.430;2022-10-17T03:51:26;12.40;1.00
51619;DHT22;38518;53.164;5.430;2022-10-17T03:53:52;12.30;1.00
51619;DHT22;38518;53.164;5.430;2022-10-17T03:56:20;12.40;1.00
51619;DHT22;38518;53.164;5.430;2022-10-17T03:58:46;12.40;1.00
51619;DHT22;38518;53.164;5.430;2022-10-17T04:01:14;12.30;27.10
51619;DHT22;38518;53.164;5.430;2022-10-17T04:03:41;13.80;23.10
51619;DHT22;38518;53.164;5.430;2022-10-17T04:06:08;12.40;28.60
51619;DHT22;38518;53.164;5.430;2022-10-17T04:08:38;12.40;38.80
51619;DHT22;38518;53.164;5.430;2022-10-17T04:11:06;12.40;46.20
51619;DHT22;38518;53.164;5.430;2022-10-17T04:13:32;12.40;61.00
51619;DHT22;38518;53.164;5.430;2022-10-17T04:16:07;12.40;89.80
51619;DHT22;38518;53.164;5.430;2022-10-17T04:18:34;12.50;97.50
51619;DHT22;38518;53.164;5.430;2022-10-17T04:21:01;12.40;99.90
51619;DHT22;38518;53.164;5.430;2022-10-17T04:23:27;12.50;99.90
51619;DHT22;38518;53.164;5.430;2022-10-17T04:25:57;12.60;99.90
51619;DHT22;38518;53.164;5.430;2022-10-17T04:28:24;12.60;99.90
51619;DHT22;38518;53.164;5.430;2022-10-17T04:33:22;12.70;99.90
51619;DHT22;38518;53.164;5.430;2022-10-17T04:36:06;12.80;99.90
51619;DHT22;38518;53.164;5.430;2022-10-17T04:38:32;12.90;99.90
51619;DHT22;38518;53.164;5.430;2022-10-17T04:40:59;12.90;99.90
51619;DHT22;38518;53.164;5.430;2022-10-17T04:43:32;12.90;99.90
51619;DHT22;38518;53.164;5.430;2022-10-17T04:45:59;12.90;99.90
51619;DHT22;38518;53.164;5.430;2022-10-17T04:48:26;12.90;99.90
51619;DHT22;38518;53.164;5.430;2022-10-17T04:51:00;13.00;99.90
51619;DHT22;38518;53.164;5.430;2022-10-17T04:53:26;13.00;99.90
51619;DHT22;38518;53.164;5.430;2022-10-17T04:55:53;13.00;99.90
51619;DHT22;38518;53.164;5.430;2022-10-17T04:58:19;13.10;99.90
51619;DHT22;38518;53.164;5.430;2022-10-17T05:00:45;13.10;99.90
51619;DHT22;38518;53.164;5.430;2022-10-17T05:03:11;13.10;99.90
51619;DHT22;38518;53.164;5.430;2022-10-17T05:05:38;13.10;99.90
51619;DHT22;38518;53.164;5.430;2022-10-17T05:08:04;13.20;99.90
51619;DHT22;38518;53.164;5.430;2022-10-17T05:10:36;13.20;99.90
51619;DHT22;38518;53.164;5.430;2022-10-17T05:13:02;13.30;99.90
51619;DHT22;38518;53.164;5.430;2022-10-17T05:15:27;13.20;99.90
51619;DHT22;38518;53.164;5.430;2022-10-17T05:17:54;13.30;99.90
51619;DHT22;38518;53.164;5.430;2022-10-17T05:20:20;13.30;99.90
51619;DHT22;38518;53.164;5.430;2022-10-17T05:22:46;13.30;99.90
51619;DHT22;38518;53.164;5.430;2022-10-17T05:25:12;13.30;99.90
51619;DHT22;38518;53.164;5.430;2022-10-17T05:27:38;13.30;99.90
51619;DHT22;38518;53.164;5.430;2022-10-17T05:30:04;13.30;99.90
51619;DHT22;38518;53.164;5.430;2022-10-17T05:32:30;13.30;99.90
51619;DHT22;38518;53.164;5.430;2022-10-17T05:34:56;13.30;99.90
51619;DHT22;38518;53.164;5.430;2022-10-17T05:37:22;13.40;99.90
51619;DHT22;38518;53.164;5.430;2022-10-17T05:39:47;13.40;99.90
51619;DHT22;38518;53.164;5.430;2022-10-17T05:42:13;13.40;99.90
51619;DHT22;38518;53.164;5.430;2022-10-17T05:44:39;13.40;99.90
51619;DHT22;38518;53.164;5.430;2022-10-17T05:47:06;13.40;99.90
51619;DHT22;38518;53.164;5.430;2022-10-17T05:49:33;13.50;99.90
51619;DHT22;38518;53.164;5.430;2022-10-17T05:51:59;13.60;99.90
51619;DHT22;38518;53.164;5.430;2022-10-17T05:54:25;13.60;99.90
51619;DHT22;38518;53.164;5.430;2022-10-17T05:56:52;12.80;99.90
51619;DHT22;38518;53.164;5.430;2022-10-17T05:59:18;13.80;99.90
51619;DHT22;38518;53.164;5.430;2022-10-17T06:01:44;13.80;99.90
51619;DHT22;38518;53.164;5.430;2022-10-17T06:04:09;13.90;99.90
51619;DHT22;38518;53.164;5.430;2022-10-17T06:06:36;14.00;99.90
51619;DHT22;38518;53.164;5.430;2022-10-17T06:09:02;14.00;99.90
51619;DHT22;38518;53.164;5.430;2022-10-17T06:11:28;14.10;99.90
51619;DHT22;38518;53.164;5.430;2022-10-17T06:13:54;14.10;99.90
51619;DHT22;38518;53.164;5.430;2022-10-17T06:16:20;14.20;99.90
51619;DHT22;38518;53.164;5.430;2022-10-17T06:18:46;14.20;99.90
51619;DHT22;38518;53.164;5.430;2022-10-17T06:21:14;14.20;99.90
51619;DHT22;38518;53.164;5.430;2022-10-17T06:23:41;14.30;99.90
51619;DHT22;38518;53.164;5.430;2022-10-17T06:26:07;14.30;99.90
51619;DHT22;38518;53.164;5.430;2022-10-17T06:28:33;13.80;99.90
51619;DHT22;38518;53.164;5.430;2022-10-17T06:31:02;14.30;99.90
51619;DHT22;38518;53.164;5.430;2022-10-17T06:33:28;14.40;99.90
51619;DHT22;38518;53.164;5.430;2022-10-17T06:35:55;14.40;99.90
51619;DHT22;38518;53.164;5.430;2022-10-17T06:38:21;14.40;99.90
51619;DHT22;38518;53.164;5.430;2022-10-17T06:40:50;14.40;99.90
51619;DHT22;38518;53.164;5.430;2022-10-17T06:43:16;14.40;99.90
51619;DHT22;38518;53.164;5.430;2022-10-17T06:45:42;14.30;99.90
51619;DHT22;38518;53.164;5.430;2022-10-17T06:48:10;14.40;99.90
51619;DHT22;38518;53.164;5.430;2022-10-17T06:50:35;14.40;99.90
51619;DHT22;38518;53.164;5.430;2022-10-17T06:53:01;14.40;99.90
51619;DHT22;38518;53.164;5.430;2022-10-17T06:55:27;14.50;99.90
51619;DHT22;38518;53.164;5.430;2022-10-17T06:57:54;14.40;99.90
51619;DHT22;38518;53.164;5.430;2022-10-17T07:00:20;14.50;99.90
51619;DHT22;38518;53.164;5.430;2022-10-17T07:02:48;14.50;99.90
51619;DHT22;38518;53.164;5.430;2022-10-17T07:05:14;14.60;99.90
51619;DHT22;38518;53.164;5.430;2022-10-17T07:07:40;14.60;99.90
51619;DHT22;38518;53.164;5.430;2022-10-17T07:10:06;14.70;99.90
51619;DHT22;38518;53.164;5.430;2022-10-17T07:12:35;14.70;99.90
51619;DHT22;38518;53.164;5.430;2022-10-17T07:15:01;14.80;99.90
51619;DHT22;38518;53.164;5.430;2022-10-17T07:17:29;14.80;99.90
51619;DHT22;38518;53.164;5.430;2022-10-17T07:19:55;14.80;99.90
51619;DHT22;38518;53.164;5.430;2022-10-17T07:22:21;14.90;99.90
51619;DHT22;38518;53.164;5.430;2022-10-17T07:24:46;14.90;99.90
51619;DHT22;38518;53.164;5.430;2022-10-17T07:27:13;15.00;99.90
51619;DHT22;38518;53.164;5.430;2022-10-17T07:29:39;15.00;99.90
51619;DHT22;38518;53.164;5.430;2022-10-17T07:32:05;15.10;99.90
51619;DHT22;38518;53.164;5.430;2022-10-17T07:34:36;15.10;99.90
51619;DHT22;38518;53.164;5.430;2022-10-17T07:37:02;15.10;99.90
51619;DHT22;38518;53.164;5.430;2022-10-17T07:39:28;15.10;99.90
51619;DHT22;38518;53.164;5.430;2022-10-17T07:41:54;15.20;99.90
51619;DHT22;38518;53.164;5.430;2022-10-17T07:44:20;15.10;99.90
51619;DHT22;38518;53.164;5.430;2022-10-17T07:46:46;15.10;99.90
51619;DHT22;38518;53.164;5.430;2022-10-17T07:49:11;15.20;99.90
51619;DHT22;38518;53.164;5.430;2022-10-17T07:51:37;15.30;99.90
51619;DHT22;38518;53.164;5.430;2022-10-17T07:54:04;15.30;99.90
51619;DHT22;38518;53.164;5.430;2022-10-17T07:56:30;15.30;99.90
51619;DHT22;38518;53.164;5.430;2022-10-17T07:58:57;15.30;99.90
51619;DHT22;38518;53.164;5.430;2022-10-17T08:01:22;15.30;99.90
51619;DHT22;38518;53.164;5.430;2022-10-17T08:03:50;15.20;99.90
51619;DHT22;38518;53.164;5.430;2022-10-17T08:06:16;15.20;99.90
51619;DHT22;38518;53.164;5.430;2022-10-17T08:08:43;15.30;99.90
51619;DHT22;38518;53.164;5.430;2022-10-17T08:11:10;15.20;99.90
51619;DHT22;38518;53.164;5.430;2022-10-17T08:13:37;15.30;99.90
51619;DHT22;38518;53.164;5.430;2022-10-17T08:16:07;15.30;99.90
51619;DHT22;38518;53.164;5.430;2022-10-17T08:18:34;15.30;99.90
51619;DHT22;38518;53.164;5.430;2022-10-17T08:21:03;15.30;99.90
51619;DHT22;38518;53.164;5.430;2022-10-17T08:23:33;15.40;99.90
51619;DHT22;38518;53.164;5.430;2022-10-17T08:26:00;15.30;99.90
51619;DHT22;38518;53.164;5.430;2022-10-17T08:28:27;15.40;99.90
51619;DHT22;38518;53.164;5.430;2022-10-17T08:30:52;15.40;99.90
51619;DHT22;38518;53.164;5.430;2022-10-17T08:33:18;15.00;99.90
51619;DHT22;38518;53.164;5.430;2022-10-17T08:35:44;15.40;99.90
51619;DHT22;38518;53.164;5.430;2022-10-17T08:38:10;15.40;96.20
51619;DHT22;38518;53.164;5.430;2022-10-17T08:40:35;15.40;99.60
51619;DHT22;38518;53.164;5.430;2022-10-17T08:45:44;15.30;93.30
51619;DHT22;38518;53.164;5.430;2022-10-17T08:48:16;15.30;88.20
51619;DHT22;38518;53.164;5.430;2022-10-17T08:50:51;15.30;90.90
51619;DHT22;38518;53.164;5.430;2022-10-17T08:53:20;15.30;96.20
51619;DHT22;38518;53.164;5.430;2022-10-17T08:55:48;15.30;98.10
51619;DHT22;38518;53.164;5.430;2022-10-17T08:58:26;15.30;96.80
51619;DHT22;38518;53.164;5.430;2022-10-17T09:06:42;15.20;94.10
51619;DHT22;38518;53.164;5.430;2022-10-17T09:09:57;15.20;99.90
51619;DHT22;38518;53.164;5.430;2022-10-17T09:20:12;15.20;99.90
51619;DHT22;38518;53.164;5.430;2022-10-17T09:23:09;15.20;99.90
51619;DHT22;38518;53.164;5.430;2022-10-17T09:25:45;15.20;99.90
51619;DHT22;38518;53.164;5.430;2022-10-17T09:28:27;15.20;99.90
51619;DHT22;38518;53.164;5.430;2022-10-17T09:31:00;15.20;99.90
51619;DHT22;38518;53.164;5.430;2022-10-17T09:33:32;15.20;99.90
51619;DHT22;38518;53.164;5.430;2022-10-17T09:35:59;15.20;99.90
51619;DHT22;38518;53.164;5.430;2022-10-17T09:38:33;15.20;99.90
51619;DHT22;38518;53.164;5.430;2022-10-17T09:41:01;15.30;99.90
51619;DHT22;38518;53.164;5.430;2022-10-17T09:43:27;15.20;99.90
51619;DHT22;38518;53.164;5.430;2022-10-17T09:46:24;15.20;99.90
51619;DHT22;38518;53.164;5.430;2022-10-17T09:51:30;15.20;99.90
51619;DHT22;38518;53.164;5.430;2022-10-17T09:54:00;15.20;99.90
51619;DHT22;38518;53.164;5.430;2022-10-17T09:56:27;15.20;99.90
51619;DHT22;38518;53.164;5.430;2022-10-17T09:58:56;15.20;99.90
51619;DHT22;38518;53.164;5.430;2022-10-17T10:01:23;14.50;99.90
51619;DHT22;38518;53.164;5.430;2022-10-17T10:04:14;15.20;99.90
51619;DHT22;38518;53.164;5.430;2022-10-17T10:09:27;15.30;99.90
51619;DHT22;38518;53.164;5.430;2022-10-17T10:11:55;15.30;99.90
51619;DHT22;38518;53.164;5.430;2022-10-17T10:17:03;15.30;99.90
51619;DHT22;38518;53.164;5.430;2022-10-17T10:19:37;15.40;99.90
51619;DHT22;38518;53.164;5.430;2022-10-17T10:22:15;15.40;99.90
51619;DHT22;38518;53.164;5.430;2022-10-17T10:24:41;15.40;1.00
51619;DHT22;38518;53.164;5.430;2022-10-17T10:27:14;15.40;1.00
51619;DHT22;38518;53.164;5.430;2022-10-17T10:32:31;15.50;1.00
51619;DHT22;38518;53.164;5.430;2022-10-17T10:35:19;15.50;1.00
51619;DHT22;38518;53.164;5.430;2022-10-17T10:37:52;15.50;1.00
51619;DHT22;38518;53.164;5.430;2022-10-17T10:40:22;15.50;1.00
51619;DHT22;38518;53.164;5.430;2022-10-17T10:42:50;15.60;1.00
51619;DHT22;38518;53.164;5.430;2022-10-17T10:45:20;15.60;1.00
51619;DHT22;38518;53.164;5.430;2022-10-17T10:47:58;15.60;1.00
51619;DHT22;38518;53.164;5.430;2022-10-17T10:50:43;15.70;1.00
51619;DHT22;38518;53.164;5.430;2022-10-17T10:58:26;16.10;1.00
51619;DHT22;38518;53.164;5.430;2022-10-17T11:00:53;16.20;1.00
51619;DHT22;38518;53.164;5.430;2022-10-17T11:03:32;16.30;1.00
51619;DHT22;38518;53.164;5.430;2022-10-17T11:06:05;16.30;1.00
51619;DHT22;38518;53.164;5.430;2022-10-17T11:09:09;16.20;1.00
51619;DHT22;38518;53.164;5.430;2022-10-17T11:11:40;16.20;1.00
51619;DHT22;38518;53.164;5.430;2022-10-17T11:20:25;16.00;1.00
51619;DHT22;38518;53.164;5.430;2022-10-17T11:22:59;15.90;1.00
51619;DHT22;38518;53.164;5.430;2022-10-17T11:27:57;15.90;1.00
51619;DHT22;38518;53.164;5.430;2022-10-17T11:30:31;15.80;1.00
51619;DHT22;38518;53.164;5.430;2022-10-17T11:33:01;15.80;1.00
51619;DHT22;38518;53.164;5.430;2022-10-17T11:35:41;15.70;1.00
51619;DHT22;38518;53.164;5.430;2022-10-17T11:38:20;15.70;1.00
51619;DHT22;38518;53.164;5.430;2022-10-17T11:40:51;15.70;1.00
51619;DHT22;38518;53.164;5.430;2022-10-17T11:43:29;15.70;1.00
51619;DHT22;38518;53.164;5.430;2022-10-17T11:46:26;15.60;1.00
51619;DHT22;38518;53.164;5.430;2022-10-17T11:51:25;15.50;1.00
51619;DHT22;38518;53.164;5.430;2022-10-17T12:00:03;15.50;1.00
51619;DHT22;38518;53.164;5.430;2022-10-17T12:02:51;15.50;1.00
51619;DHT22;38518;53.164;5.430;2022-10-17T12:08:08;15.40;1.00
51619;DHT22;38518;53.164;5.430;2022-10-17T12:15:53;15.60;1.00
51619;DHT22;38518;53.164;5.430;2022-10-17T12:18:19;15.70;1.00
51619;DHT22;38518;53.164;5.430;2022-10-17T12:20:58;15.70;1.00
51619;DHT22;38518;53.164;5.430;2022-10-17T12:23:29;15.80;1.00
51619;DHT22;38518;53.164;5.430;2022-10-17T12:25:58;15.90;1.00
51619;DHT22;38518;53.164;5.430;2022-10-17T12:28:45;16.00;1.00
51619;DHT22;38518;53.164;5.430;2022-10-17T12:33:48;16.10;1.00
51619;DHT22;38518;53.164;5.430;2022-10-17T12:46:48;16.00;1.00
51619;DHT22;38518;53.164;5.430;2022-10-17T12:57:31;16.00;99.90
51619;DHT22;38518;53.164;5.430;2022-10-17T13:00:00;16.00;99.90
51619;DHT22;38518;53.164;5.430;2022-10-17T13:02:28;16.00;99.90
51619;DHT22;38518;53.164;5.430;2022-10-17T13:05:03;16.00;99.90
51619;DHT22;38518;53.164;5.430;2022-10-17T13:07:32;15.90;99.90
51619;DHT22;38518;53.164;5.430;2022-10-17T13:09:58;15.90;99.90
51619;DHT22;38518;53.164;5.430;2022-10-17T13:12:31;15.90;99.90
51619;DHT22;38518;53.164;5.430;2022-10-17T13:14:58;15.90;99.90
51619;DHT22;38518;53.164;5.430;2022-10-17T13:17:27;15.90;99.90
51619;DHT22;38518;53.164;5.430;2022-10-17T13:19:54;15.90;99.90
51619;DHT22;38518;53.164;5.430;2022-10-17T13:22:25;15.90;99.90
51619;DHT22;38518;53.164;5.430;2022-10-17T13:25:03;15.70;99.90
51619;DHT22;38518;53.164;5.430;2022-10-17T13:27:33;15.90;99.90
51619;DHT22;38518;53.164;5.430;2022-10-17T13:30:01;16.00;99.90
51619;DHT22;38518;53.164;5.430;2022-10-17T13:32:42;15.00;99.90
51619;DHT22;38518;53.164;5.430;2022-10-17T13:35:15;16.00;99.90
51619;DHT22;38518;53.164;5.430;2022-10-17T13:37:43;16.00;99.90
51619;DHT22;38518;53.164;5.430;2022-10-17T13:40:17;16.00;99.90
51619;DHT22;38518;53.164;5.430;2022-10-17T13:42:44;16.00;99.90
51619;DHT22;38518;53.164;5.430;2022-10-17T13:45:33;16.00;99.90
51619;DHT22;38518;53.164;5.430;2022-10-17T13:48:06;16.00;99.90
51619;DHT22;38518;53.164;5.430;2022-10-17T13:50:41;16.00;99.90
51619;DHT22;38518;53.164;5.430;2022-10-17T13:55:56;16.10;99.90
51619;DHT22;38518;53.164;5.430;2022-10-17T13:58:23;16.10;99.90
51619;DHT22;38518;53.164;5.430;2022-10-17T14:00:49;16.20;99.90
51619;DHT22;38518;53.164;5.430;2022-10-17T14:03:19;16.30;99.90
51619;DHT22;38518;53.164;5.430;2022-10-17T14:09:06;16.40;99.90
51619;DHT22;38518;53.164;5.430;2022-10-17T14:11:42;16.50;99.90
51619;DHT22;38518;53.164;5.430;2022-10-17T14:14:19;16.50;99.90
51619;DHT22;38518;53.164;5.430;2022-10-17T14:16:45;16.60;99.90
51619;DHT22;38518;53.164;5.430;2022-10-17T14:19:32;16.90;99.90
51619;DHT22;38518;53.164;5.430;2022-10-17T14:22:35;17.20;99.90
51619;DHT22;38518;53.164;5.430;2022-10-17T14:25:02;17.50;99.90
51619;DHT22;38518;53.164;5.430;2022-10-17T14:27:36;17.60;93.80
51619;DHT22;38518;53.164;5.430;2022-10-17T14:32:56;17.50;1.00
51619;DHT22;38518;53.164;5.430;2022-10-17T14:35:23;17.40;1.00
51619;DHT22;38518;53.164;5.430;2022-10-17T14:37:56;17.20;99.90
51619;DHT22;38518;53.164;5.430;2022-10-17T14:40:26;17.00;99.90
51619;DHT22;38518;53.164;5.430;2022-10-17T14:42:55;17.10;99.90
51619;DHT22;38518;53.164;5.430;2022-10-17T14:45:34;16.70;99.90
51619;DHT22;38518;53.164;5.430;2022-10-17T14:48:05;17.00;99.90
51619;DHT22;38518;53.164;5.430;2022-10-17T14:50:33;16.50;99.90
51619;DHT22;38518;53.164;5.430;2022-10-17T14:55:36;16.40;1.00
51619;DHT22;38518;53.164;5.430;2022-10-17T14:58:29;16.40;1.00
51619;DHT22;38518;53.164;5.430;2022-10-17T15:00:59;16.40;1.00
51619;DHT22;38518;53.164;5.430;2022-10-17T15:03:25;16.40;1.00
51619;DHT22;38518;53.164;5.430;2022-10-17T15:05:52;16.30;1.00
51619;DHT22;38518;53.164;5.430;2022-10-17T15:08:22;16.30;1.00
51619;DHT22;38518;53.164;5.430;2022-10-17T15:10:49;16.30;1.00
51619;DHT22;38518;53.164;5.430;2022-10-17T15:13:16;16.20;1.00
51619;DHT22;38518;53.164;5.430;2022-10-17T15:15:42;16.20;1.00
51619;DHT22;38518;53.164;5.430;2022-10-17T15:18:10;16.20;1.00
51619;DHT22;38518;53.164;5.430;2022-10-17T15:20:37;16.20;1.00
51619;DHT22;38518;53.164;5.430;2022-10-17T15:23:03;16.20;1.00
51619;DHT22;38518;53.164;5.430;2022-10-17T15:25:30;16.10;1.00
51619;DHT22;38518;53.164;5.430;2022-10-17T15:27:57;16.10;1.00
51619;DHT22;38518;53.164;5.430;2022-10-17T15:30:29;16.10;1.00
51619;DHT22;38518;53.164;5.430;2022-10-17T15:32:56;16.00;1.00
51619;DHT22;38518;53.164;5.430;2022-10-17T15:35:22;16.00;1.00
51619;DHT22;38518;53.164;5.430;2022-10-17T15:37:48;15.90;1.00
51619;DHT22;38518;53.164;5.430;2022-10-17T15:40:17;15.90;1.00
51619;DHT22;38518;53.164;5.430;2022-10-17T15:42:42;15.90;1.00
51619;DHT22;38518;53.164;5.430;2022-10-17T15:45:13;15.80;1.00
51619;DHT22;38518;53.164;5.430;2022-10-17T15:47:41;15.80;1.00
51619;DHT22;38518;53.164;5.430;2022-10-17T15:50:12;15.70;1.00
51619;DHT22;38518;53.164;5.430;2022-10-17T15:52:38;15.70;1.00
51619;DHT22;38518;53.164;5.430;2022-10-17T15:55:04;15.70;1.00
51619;DHT22;38518;53.164;5.430;2022-10-17T15:57:34;15.70;1.00
51619;DHT22;38518;53.164;5.430;2022-10-17T16:00:00;15.60;1.00
51619;DHT22;38518;53.164;5.430;2022-10-17T16:02:26;15.70;1.00
51619;DHT22;38518;53.164;5.430;2022-10-17T16:04:52;15.60;1.30
51619;DHT22;38518;53.164;5.430;2022-10-17T16:07:19;15.60;1.00
51619;DHT22;38518;53.164;5.430;2022-10-17T16:09:45;15.60;31.20
51619;DHT22;38518;53.164;5.430;2022-10-17T16:12:17;15.50;1.00
51619;DHT22;38518;53.164;5.430;2022-10-17T16:14:44;15.50;1.00
51619;DHT22;38518;53.164;5.430;2022-10-17T16:17:14;15.40;21.50
51619;DHT22;38518;53.164;5.430;2022-10-17T16:19:41;15.40;5.30
51619;DHT22;38518;53.164;5.430;2022-10-17T16:22:26;15.30;21.20
51619;DHT22;38518;53.164;5.430;2022-10-17T16:24:55;15.30;20.10
51619;DHT22;38518;53.164;5.430;2022-10-17T16:27:24;15.20;38.00
51619;DHT22;38518;53.164;5.430;2022-10-17T16:29:49;15.20;36.00
51619;DHT22;38518;53.164;5.430;2022-10-17T16:32:15;15.20;85.40
51619;DHT22;38518;53.164;5.430;2022-10-17T16:34:41;15.10;73.70
51619;DHT22;38518;53.164;5.430;2022-10-17T16:37:06;15.10;80.00
51619;DHT22;38518;53.164;5.430;2022-10-17T16:39:32;15.10;90.00
51619;DHT22;38518;53.164;5.430;2022-10-17T16:41:58;15.00;94.20
51619;DHT22;38518;53.164;5.430;2022-10-17T16:44:23;15.00;99.90
51619;DHT22;38518;53.164;5.430;2022-10-17T16:46:49;14.90;99.90
51619;DHT22;38518;53.164;5.430;2022-10-17T16:49:15;14.80;99.90
51619;DHT22;38518;53.164;5.430;2022-10-17T16:51:42;14.80;99.90
51619;DHT22;38518;53.164;5.430;2022-10-17T16:54:08;14.80;99.90
51619;DHT22;38518;53.164;5.430;2022-10-17T16:56:34;14.70;99.90
51619;DHT22;38518;53.164;5.430;2022-10-17T16:59:00;14.70;99.90
51619;DHT22;38518;53.164;5.430;2022-10-17T17:01:26;14.70;99.90
51619;DHT22;38518;53.164;5.430;2022-10-17T17:03:54;14.70;99.90
51619;DHT22;38518;53.164;5.430;2022-10-17T17:06:29;14.60;99.90
51619;DHT22;38518;53.164;5.430;2022-10-17T17:08:55;14.70;99.90
51619;DHT22;38518;53.164;5.430;2022-10-17T17:11:25;14.60;99.90
51619;DHT22;38518;53.164;5.430;2022-10-17T17:13:55;14.50;99.90
51619;DHT22;38518;53.164;5.430;2022-10-17T17:16:22;14.60;99.90
51619;DHT22;38518;53.164;5.430;2022-10-17T17:18:54;14.50;99.90
51619;DHT22;38518;53.164;5.430;2022-10-17T17:21:20;14.50;99.90
51619;DHT22;38518;53.164;5.430;2022-10-17T17:23:45;14.50;99.90
51619;DHT22;38518;53.164;5.430;2022-10-17T17:26:15;14.50;99.90
51619;DHT22;38518;53.164;5.430;2022-10-17T17:28:41;14.50;99.90
51619;DHT22;38518;53.164;5.430;2022-10-17T17:31:10;14.50;99.90
51619;DHT22;38518;53.164;5.430;2022-10-17T17:33:38;14.50;99.90
51619;DHT22;38518;53.164;5.430;2022-10-17T17:36:04;14.50;99.90
51619;DHT22;38518;53.164;5.430;2022-10-17T17:38:32;14.50;99.90
51619;DHT22;38518;53.164;5.430;2022-10-17T17:40:59;14.50;99.90
51619;DHT22;38518;53.164;5.430;2022-10-17T17:43:25;14.50;99.90
51619;DHT22;38518;53.164;5.430;2022-10-17T17:45:50;14.40;99.90
51619;DHT22;38518;53.164;5.430;2022-10-17T17:48:16;14.40;99.90
51619;DHT22;38518;53.164;5.430;2022-10-17T17:50:42;14.40;99.90
51619;DHT22;38518;53.164;5.430;2022-10-17T17:53:09;14.40;99.90
51619;DHT22;38518;53.164;5.430;2022-10-17T17:55:35;14.40;99.90
51619;DHT22;38518;53.164;5.430;2022-10-17T17:58:01;14.40;99.90
51619;DHT22;38518;53.164;5.430;2022-10-17T18:00:28;14.40;99.90
51619;DHT22;38518;53.164;5.430;2022-10-17T18:02:55;14.40;99.90
51619;DHT22;38518;53.164;5.430;2022-10-17T18:05:21;14.40;99.90
51619;DHT22;38518;53.164;5.430;2022-10-17T18:07:47;14.40;99.90